Aberdeen, Arkansas
Current Conditions -  °F | °C
As of 3:55 AM on Wednesday 26 Nov 2014 (Local Time) from KSGT Reporting Station
Clear Clear  
Wind Chill:   Ceiling: Unl
Heat Index:   Visibility: 10mi
Dew Point: -1°   Wind: 6mph
Humidity: 75%   Direction: 130°SE
Pressure: 30.12"   Gusts: NA
Location:  34.6163°N, 91.3754°W
Report Text: KSGT 260955Z AUTO 13005KT 10SM CLR 03/M01 A3012 RMK AO1
Loading
Personal Weather Stations






























Interactive Weather Map New forecast layout! Learn more

10-Day Weather Forecast

Advertisements
Track Severe Weather on mobile